createdAt,value
2019-02-18T00:01:38.770Z,-0.80
2019-02-18T00:04:08.826Z,-0.80
2019-02-18T00:06:38.705Z,-0.80
2019-02-18T00:09:09.156Z,-0.80
2019-02-18T00:11:39.601Z,-0.90
2019-02-18T00:14:09.827Z,-0.90
2019-02-18T00:16:40.158Z,-0.90
2019-02-18T00:19:10.605Z,-0.90
2019-02-18T00:21:40.614Z,-0.90
2019-02-18T00:24:10.646Z,-1.00
2019-02-18T00:26:40.861Z,-1.00
2019-02-18T00:29:11.839Z,-1.00
2019-02-18T00:31:42.165Z,-1.00
2019-02-18T00:34:12.868Z,-1.00
2019-02-18T00:36:42.894Z,-1.10
2019-02-18T00:39:12.995Z,-1.10
2019-02-18T00:41:43.029Z,-1.00
2019-02-18T00:44:12.991Z,-1.10
2019-02-18T00:46:43.443Z,-1.10
2019-02-18T00:49:13.670Z,-1.20
2019-02-18T00:51:43.574Z,-1.20
2019-02-18T00:54:13.808Z,-1.30
2019-02-18T00:56:43.801Z,-1.30
2019-02-18T00:59:13.842Z,-1.30
2019-02-18T01:01:43.870Z,-1.30
2019-02-18T01:04:14.387Z,-1.40
2019-02-18T01:06:44.789Z,-1.40
2019-02-18T01:09:14.900Z,-1.40
2019-02-18T01:11:45.156Z,-1.40
2019-02-18T01:14:16.006Z,-1.40
2019-02-18T01:16:46.562Z,-1.30
2019-02-18T01:19:16.663Z,-1.40
2019-02-18T01:21:46.816Z,-1.40
2019-02-18T01:24:16.811Z,-1.40
2019-02-18T01:26:46.802Z,-1.40
2019-02-18T01:29:17.349Z,-1.40
2019-02-18T01:31:47.314Z,-1.50
2019-02-18T01:34:17.207Z,-1.40
2019-02-18T01:36:47.136Z,-1.40
2019-02-18T01:39:18.083Z,-1.40
2019-02-18T01:41:48.075Z,-1.50
2019-02-18T01:44:18.092Z,-1.50
2019-02-18T01:46:48.008Z,-1.50
2019-02-18T01:49:18.031Z,-1.50
2019-02-18T01:51:48.250Z,-1.50
2019-02-18T01:54:18.224Z,-1.60
2019-02-18T01:56:48.594Z,-1.60
2019-02-18T01:59:18.947Z,-1.60
2019-02-18T02:01:49.394Z,-1.60
2019-02-18T02:04:19.387Z,-1.70
2019-02-18T02:06:50.428Z,-1.60
2019-02-18T02:09:20.729Z,-1.60
2019-02-18T02:11:50.906Z,-1.60
2019-02-18T02:14:20.947Z,-1.60
2019-02-18T02:16:51.889Z,-1.60
2019-02-18T02:19:21.880Z,-1.60
2019-02-18T02:21:52.414Z,-1.70
2019-02-18T02:24:22.545Z,-1.70
2019-02-18T02:26:52.951Z,-1.70
2019-02-18T02:29:23.296Z,-1.70
2019-02-18T02:31:53.436Z,-1.70
2019-02-18T02:34:23.578Z,-1.80
2019-02-18T02:36:53.452Z,-1.80
2019-02-18T02:39:23.783Z,-1.90
2019-02-18T02:41:53.837Z,-1.90
2019-02-18T02:44:24.236Z,-2.00
2019-02-18T02:46:54.766Z,-2.00
2019-02-18T02:49:25.462Z,-2.00
2019-02-18T02:51:55.437Z,-2.00
2019-02-18T02:54:25.298Z,-2.00
2019-02-18T02:56:55.501Z,-2.00
2019-02-18T02:59:25.541Z,-2.00
2019-02-18T03:01:55.380Z,-2.00
2019-02-18T03:04:25.763Z,-2.10
2019-02-18T03:06:55.771Z,-2.10
2019-02-18T03:09:25.970Z,-2.20
2019-02-18T03:11:55.855Z,-2.20
2019-02-18T03:14:26.202Z,-2.20
2019-02-18T03:16:56.679Z,-2.20
2019-02-18T03:19:26.903Z,-2.10
2019-02-18T03:21:56.768Z,-2.10
2019-02-18T03:24:26.764Z,-2.00
2019-02-18T03:26:56.746Z,-1.90
2019-02-18T03:30:11.003Z,-1.90
2019-02-18T03:32:54.118Z,-2.00
2019-02-18T03:35:24.749Z,-2.00
2019-02-18T03:37:54.783Z,-2.10
2019-02-18T03:40:24.760Z,-2.10
2019-02-18T03:42:55.008Z,-2.10
2019-02-18T03:45:25.192Z,-2.20
2019-02-18T03:47:55.055Z,-2.10
2019-02-18T03:50:25.106Z,-2.20
2019-02-18T03:52:55.285Z,-2.20
2019-02-18T03:55:25.882Z,-2.20
2019-02-18T03:57:55.842Z,-2.30
2019-02-18T04:00:26.273Z,-2.30
2019-02-18T04:02:56.677Z,-2.30
2019-02-18T04:05:27.102Z,-2.30
2019-02-18T04:07:57.351Z,-2.20
2019-02-18T04:10:27.243Z,-2.20
2019-02-18T04:12:57.640Z,-2.20
2019-02-18T04:15:28.083Z,-2.20
2019-02-18T04:17:58.247Z,-2.10
2019-02-18T04:20:28.722Z,-2.10
2019-02-18T04:22:58.883Z,-2.10
2019-02-18T04:25:28.840Z,-2.00
2019-02-18T04:27:59.309Z,-2.10
2019-02-18T04:30:29.797Z,-2.10
2019-02-18T04:33:00.480Z,-2.20
2019-02-18T04:35:30.421Z,-2.20
2019-02-18T04:38:00.420Z,-2.10
2019-02-18T04:40:30.720Z,-2.30
2019-02-18T04:43:01.464Z,-2.40
2019-02-18T04:45:31.475Z,-2.30
2019-02-18T04:48:03.240Z,-2.50
2019-02-18T04:50:33.331Z,-2.50
2019-02-18T04:53:03.345Z,-2.50
2019-02-18T04:55:33.351Z,-2.50
2019-02-18T04:58:06.232Z,-2.50
2019-02-18T05:00:37.483Z,-2.40
2019-02-18T05:03:07.431Z,-2.50
2019-02-18T05:05:37.831Z,-2.50
2019-02-18T05:08:07.812Z,-2.60
2019-02-18T05:10:38.610Z,-2.60
2019-02-18T05:13:08.741Z,-2.70
2019-02-18T05:15:40.299Z,-2.70
2019-02-18T05:18:11.113Z,-2.70
2019-02-18T05:20:41.129Z,-2.70
2019-02-18T05:23:11.673Z,-2.80
2019-02-18T05:25:41.959Z,-2.80
2019-02-18T05:28:11.915Z,-2.80
2019-02-18T05:30:42.410Z,-2.80
2019-02-18T05:33:12.961Z,-2.80
2019-02-18T05:35:43.278Z,-2.80
2019-02-18T05:38:13.347Z,-2.80
2019-02-18T05:40:43.453Z,-2.70
2019-02-18T05:43:13.584Z,-2.70
2019-02-18T05:45:43.571Z,-2.70
2019-02-18T05:48:14.219Z,-2.70
2019-02-18T05:50:44.892Z,-2.70
2019-02-18T05:53:14.788Z,-2.70
2019-02-18T05:55:44.631Z,-2.80
2019-02-18T05:58:14.876Z,-2.80
2019-02-18T06:00:44.880Z,-2.80
2019-02-18T06:03:15.091Z,-2.80
2019-02-18T06:05:45.085Z,-2.80
2019-02-18T06:08:15.147Z,-2.80
2019-02-18T06:10:45.893Z,-2.80
2019-02-18T06:13:15.903Z,-2.80
2019-02-18T06:15:46.356Z,-2.90
2019-02-18T06:18:16.477Z,-3.00
2019-02-18T06:20:46.970Z,-3.00
2019-02-18T06:23:17.003Z,-3.00
2019-02-18T06:25:47.262Z,-3.00
2019-02-18T06:28:17.725Z,-3.00
2019-02-18T06:30:48.037Z,-3.00
2019-02-18T06:33:18.169Z,-2.90
2019-02-18T06:35:48.368Z,-2.80
2019-02-18T06:38:18.490Z,-2.80
2019-02-18T06:40:48.700Z,-2.80
2019-02-18T06:43:18.763Z,-2.80
2019-02-18T06:46:07.891Z,-2.70
2019-02-18T06:48:43.490Z,-2.70
2019-02-18T06:51:13.524Z,-2.40
2019-02-18T06:53:43.529Z,-2.00
2019-02-18T06:56:13.855Z,-1.40
2019-02-18T06:58:52.694Z,-0.80
2019-02-18T07:01:57.071Z,-0.20
2019-02-18T07:04:35.901Z,0.50
2019-02-18T07:07:34.513Z,1.00
2019-02-18T07:10:14.370Z,1.60
2019-02-18T07:12:50.503Z,2.20
2019-02-18T07:15:20.880Z,2.70
2019-02-18T07:17:51.523Z,3.10
2019-02-18T07:20:21.731Z,3.70
2019-02-18T07:22:51.740Z,4.30
2019-02-18T07:25:21.901Z,4.90
2019-02-18T07:27:52.399Z,5.60
2019-02-18T07:30:22.568Z,6.40
2019-02-18T07:32:53.244Z,7.30
2019-02-18T07:35:23.614Z,8.30
2019-02-18T07:37:53.791Z,9.20
2019-02-18T07:40:23.769Z,10.00
2019-02-18T07:42:54.230Z,10.70
2019-02-18T07:45:24.578Z,11.70
2019-02-18T07:47:54.604Z,12.30
2019-02-18T07:50:24.520Z,13.00
2019-02-18T07:52:54.624Z,13.60
2019-02-18T07:55:25.195Z,14.10
2019-02-18T07:57:55.283Z,14.40
2019-02-18T08:00:25.674Z,14.20
2019-02-18T08:02:55.793Z,13.60
2019-02-18T08:05:26.645Z,13.20
2019-02-18T08:07:56.690Z,13.30
2019-02-18T08:10:27.023Z,14.10
2019-02-18T08:12:57.608Z,15.10
2019-02-18T08:15:27.718Z,16.10
2019-02-18T08:17:57.899Z,17.00
2019-02-18T08:20:27.821Z,17.60
2019-02-18T08:22:58.461Z,18.30
2019-02-18T08:25:28.465Z,18.70
2019-02-18T08:27:58.629Z,18.80
2019-02-18T08:30:29.213Z,18.70
2019-02-18T08:32:59.138Z,18.80
2019-02-18T08:35:29.366Z,19.10
2019-02-18T08:37:59.618Z,19.50
2019-02-18T08:40:30.206Z,19.50
2019-02-18T08:43:00.384Z,19.70
2019-02-18T08:45:30.558Z,20.20
2019-02-18T08:48:00.560Z,20.80
2019-02-18T08:50:31.119Z,21.20
2019-02-18T08:53:01.103Z,21.50
2019-02-18T08:55:31.203Z,21.80
2019-02-18T08:58:01.675Z,22.10
2019-02-18T09:00:32.250Z,22.50
2019-02-18T09:03:02.790Z,22.80
2019-02-18T09:05:32.837Z,23.10
2019-02-18T09:08:03.166Z,23.60
2019-02-18T09:10:34.094Z,23.90
2019-02-18T09:13:04.438Z,24.00
2019-02-18T09:15:34.366Z,24.20
2019-02-18T09:18:04.315Z,24.40
2019-02-18T09:20:34.578Z,24.60
2019-02-18T09:23:21.779Z,24.60
2019-02-18T09:25:54.821Z,24.10
2019-02-18T09:28:25.122Z,24.20
2019-02-18T09:30:56.301Z,24.30
2019-02-18T09:33:26.449Z,24.10
2019-02-18T09:35:56.495Z,23.70
2019-02-18T09:38:26.858Z,23.90
2019-02-18T09:40:58.217Z,24.20
2019-02-18T09:43:29.280Z,24.60
2019-02-18T09:45:59.461Z,25.00
2019-02-18T09:48:29.671Z,25.10
2019-02-18T09:51:00.297Z,25.20
2019-02-18T09:53:31.052Z,25.60
2019-02-18T09:56:01.817Z,25.90
2019-02-18T09:58:31.924Z,26.10
2019-02-18T10:01:02.011Z,26.30
2019-02-18T10:03:32.416Z,26.20
2019-02-18T10:06:02.992Z,26.10
2019-02-18T10:08:33.073Z,26.30
2019-02-18T10:11:03.174Z,26.50
2019-02-18T10:13:33.224Z,26.80
2019-02-18T10:16:03.443Z,27.00
2019-02-18T10:18:33.309Z,27.30
2019-02-18T10:21:03.349Z,27.30
2019-02-18T10:23:33.555Z,27.40
2019-02-18T10:26:03.443Z,27.40
2019-02-18T10:28:33.467Z,27.30
2019-02-18T10:31:03.760Z,27.10
2019-02-18T10:33:33.803Z,27.00
2019-02-18T10:36:03.856Z,27.10
2019-02-18T10:38:33.782Z,27.30
2019-02-18T10:41:06.818Z,27.10
2019-02-18T10:43:35.405Z,26.90
2019-02-18T10:46:05.326Z,26.80
2019-02-18T10:48:35.969Z,26.60
2019-02-18T10:51:06.430Z,26.40
2019-02-18T10:53:36.501Z,26.10
2019-02-18T10:56:06.487Z,25.80
2019-02-18T10:58:36.450Z,25.80
2019-02-18T11:01:07.359Z,26.00
2019-02-18T11:03:37.406Z,26.20
2019-02-18T11:06:09.262Z,26.10
2019-02-18T11:08:39.775Z,26.20
2019-02-18T11:11:16.632Z,26.00
2019-02-18T11:13:41.510Z,26.10
2019-02-18T11:16:11.885Z,26.10
2019-02-18T11:18:42.188Z,26.10
2019-02-18T11:21:13.471Z,25.80
2019-02-18T11:23:43.578Z,25.80
2019-02-18T11:26:13.559Z,25.60
2019-02-18T11:28:44.142Z,25.10
2019-02-18T11:31:15.847Z,25.10
2019-02-18T11:33:46.307Z,24.90
2019-02-18T11:36:16.765Z,23.70
2019-02-18T11:38:46.831Z,22.40
2019-02-18T11:41:26.861Z,21.60
2019-02-18T11:43:48.965Z,21.50
2019-02-18T11:46:19.305Z,21.00
2019-02-18T11:48:49.410Z,20.70
2019-02-18T11:51:19.887Z,20.00
2019-02-18T11:53:50.300Z,19.10
2019-02-18T11:56:20.779Z,18.50
2019-02-18T11:58:51.533Z,18.00
2019-02-18T12:01:22.247Z,17.50
2019-02-18T12:03:52.941Z,16.90
2019-02-18T12:06:22.941Z,16.30
2019-02-18T12:08:52.995Z,16.90
2019-02-18T12:11:23.111Z,17.70
2019-02-18T12:13:53.495Z,18.30
2019-02-18T12:16:23.968Z,18.70
2019-02-18T12:18:54.087Z,19.20
2019-02-18T12:21:24.139Z,19.50
2019-02-18T12:23:54.288Z,19.80
2019-02-18T12:26:25.145Z,19.70
2019-02-18T12:28:55.660Z,19.60
2019-02-18T12:31:25.698Z,19.50
2019-02-18T12:33:56.325Z,19.50
2019-02-18T12:36:26.545Z,19.40
2019-02-18T12:38:56.715Z,19.10
2019-02-18T12:41:27.215Z,18.80
2019-02-18T12:43:58.566Z,18.20
2019-02-18T12:46:28.652Z,17.50
2019-02-18T12:48:58.899Z,17.30
2019-02-18T12:51:29.440Z,17.30
2019-02-18T12:54:04.955Z,17.40
2019-02-18T12:56:35.038Z,17.20
2019-02-18T12:59:05.723Z,16.80
2019-02-18T13:01:36.810Z,16.60
2019-02-18T13:04:08.804Z,16.60
2019-02-18T13:06:40.696Z,16.40
2019-02-18T13:09:12.427Z,15.80
2019-02-18T13:11:44.237Z,15.50
2019-02-18T13:14:16.137Z,15.60
2019-02-18T13:16:48.134Z,15.60
2019-02-18T13:19:19.957Z,15.00
2019-02-18T13:21:51.743Z,14.80
2019-02-18T13:24:24.262Z,14.60
2019-02-18T13:26:54.580Z,14.80
2019-02-18T13:29:25.717Z,15.10
2019-02-18T13:31:56.252Z,15.30
2019-02-18T13:34:26.276Z,15.50
2019-02-18T13:36:58.022Z,15.70
2019-02-18T13:39:28.577Z,15.90
2019-02-18T13:42:07.096Z,16.00
2019-02-18T13:44:31.241Z,16.20
2019-02-18T13:47:00.732Z,16.10
2019-02-18T13:49:31.032Z,16.20
2019-02-18T13:52:02.995Z,16.10
2019-02-18T13:54:33.690Z,16.00
2019-02-18T13:57:09.829Z,15.70
2019-02-18T13:59:36.268Z,15.60
2019-02-18T14:02:07.284Z,15.30
2019-02-18T14:04:37.647Z,15.00
2019-02-18T14:07:07.681Z,14.90
2019-02-18T14:09:38.341Z,15.00
2019-02-18T14:12:15.963Z,15.00
2019-02-18T14:14:40.568Z,14.90
2019-02-18T14:17:10.923Z,14.90
2019-02-18T14:19:41.200Z,14.80
2019-02-18T14:22:11.506Z,14.60
2019-02-18T14:24:41.520Z,14.30
2019-02-18T14:27:11.519Z,14.10
2019-02-18T14:29:41.981Z,14.10
2019-02-18T14:32:12.433Z,14.00
2019-02-18T14:34:42.558Z,13.80
2019-02-18T14:37:12.670Z,13.70
2019-02-18T14:39:42.734Z,13.60
2019-02-18T14:42:13.353Z,13.40
2019-02-18T14:44:43.863Z,13.30
2019-02-18T14:47:14.581Z,13.20
2019-02-18T14:49:44.934Z,13.10
2019-02-18T14:52:15.248Z,13.10
2019-02-18T14:54:45.436Z,13.10
2019-02-18T14:57:15.742Z,13.00
2019-02-18T14:59:46.011Z,13.00
2019-02-18T15:02:16.359Z,12.90
2019-02-18T15:04:46.757Z,12.70
2019-02-18T15:07:17.052Z,12.60
2019-02-18T15:09:48.882Z,12.60
2019-02-18T15:12:20.013Z,12.50
2019-02-18T15:14:50.308Z,12.40
2019-02-18T15:17:20.620Z,12.40
2019-02-18T15:19:50.629Z,12.30
2019-02-18T15:22:20.732Z,12.30
2019-02-18T15:24:50.879Z,12.30
2019-02-18T15:27:21.642Z,12.30
2019-02-18T15:29:52.057Z,12.20
2019-02-18T15:32:22.588Z,12.10
2019-02-18T15:34:52.725Z,12.00
2019-02-18T15:37:23.411Z,12.00
2019-02-18T15:39:54.360Z,11.90
2019-02-18T15:42:24.577Z,11.80
2019-02-18T15:44:54.778Z,11.80
2019-02-18T15:47:25.298Z,11.70
2019-02-18T15:49:55.625Z,11.70
2019-02-18T15:52:25.952Z,11.60
2019-02-18T15:54:56.961Z,11.50
2019-02-18T15:57:27.456Z,11.50
2019-02-18T15:59:57.557Z,11.40
2019-02-18T16:02:27.688Z,11.30
2019-02-18T16:04:57.965Z,11.30
2019-02-18T16:07:28.607Z,11.30
2019-02-18T16:09:58.801Z,11.20
2019-02-18T16:12:29.105Z,11.20
2019-02-18T16:14:59.159Z,11.10
2019-02-18T16:17:29.601Z,11.00
2019-02-18T16:19:59.579Z,10.80
2019-02-18T16:22:29.706Z,10.70
2019-02-18T16:24:59.896Z,10.70
2019-02-18T16:27:30.142Z,10.60
2019-02-18T16:30:00.389Z,10.50
2019-02-18T16:32:30.837Z,10.50
2019-02-18T16:35:01.301Z,10.40
2019-02-18T16:37:31.720Z,10.30
2019-02-18T16:40:01.848Z,10.20
2019-02-18T16:42:32.950Z,10.20
2019-02-18T16:45:03.542Z,10.20
2019-02-18T16:47:34.104Z,10.20
2019-02-18T16:50:04.415Z,10.10
2019-02-18T16:52:34.854Z,10.10
2019-02-18T16:55:05.310Z,10.00
2019-02-18T16:57:35.512Z,10.00
2019-02-18T17:00:11.003Z,9.90
2019-02-18T17:02:41.110Z,9.80
2019-02-18T17:05:11.356Z,9.70
2019-02-18T17:07:43.099Z,9.60
2019-02-18T17:10:13.788Z,9.60
2019-02-18T17:12:43.985Z,9.50
2019-02-18T17:15:14.366Z,9.40
2019-02-18T17:17:44.459Z,9.30
2019-02-18T17:20:15.083Z,9.30
2019-02-18T17:22:45.693Z,9.30
2019-02-18T17:25:15.967Z,9.20
2019-02-18T17:27:47.149Z,9.10
2019-02-18T17:30:17.391Z,9.10
2019-02-18T17:32:47.960Z,9.00
2019-02-18T17:35:18.702Z,8.90
2019-02-18T17:37:48.739Z,8.80
2019-02-18T17:40:18.822Z,8.70
2019-02-18T17:42:50.005Z,8.70
2019-02-18T17:45:20.420Z,8.60
2019-02-18T17:47:51.022Z,8.50
2019-02-18T17:50:21.246Z,8.50
2019-02-18T17:52:51.873Z,8.40
2019-02-18T17:55:22.341Z,8.30
2019-02-18T17:57:52.292Z,8.30
2019-02-18T18:00:25.165Z,8.20
2019-02-18T18:02:55.468Z,8.10
2019-02-18T18:05:26.172Z,8.10
2019-02-18T18:07:56.438Z,8.00
2019-02-18T18:10:26.847Z,8.00
2019-02-18T18:12:57.290Z,7.90
2019-02-18T18:15:27.392Z,7.90
2019-02-18T18:17:57.478Z,7.80
2019-02-18T18:20:27.394Z,7.70
2019-02-18T18:22:57.848Z,7.60
2019-02-18T18:25:28.248Z,7.60
2019-02-18T18:27:58.827Z,7.60
2019-02-18T18:30:29.248Z,7.50
2019-02-18T18:32:59.329Z,7.50
2019-02-18T18:35:29.337Z,7.60
2019-02-18T18:37:59.263Z,7.60
2019-02-18T18:40:29.443Z,7.60
2019-02-18T18:42:59.796Z,7.60
2019-02-18T18:45:29.918Z,7.60
2019-02-18T18:47:59.965Z,7.60
2019-02-18T18:50:30.565Z,7.60
2019-02-18T18:53:00.742Z,7.50
2019-02-18T18:55:31.121Z,7.50
2019-02-18T18:58:01.298Z,7.40
2019-02-18T19:00:31.593Z,7.30
2019-02-18T19:03:03.667Z,7.10
2019-02-18T19:05:34.528Z,7.00
2019-02-18T19:08:05.132Z,6.80
2019-02-18T19:10:35.453Z,6.70
2019-02-18T19:13:05.576Z,6.50
2019-02-18T19:15:35.585Z,6.40
2019-02-18T19:18:06.903Z,6.40
2019-02-18T19:20:37.158Z,6.30
2019-02-18T19:23:07.357Z,6.20
2019-02-18T19:25:37.521Z,6.10
2019-02-18T19:28:07.935Z,6.10
2019-02-18T19:30:38.130Z,6.00
2019-02-18T19:33:08.365Z,6.00
2019-02-18T19:35:38.572Z,5.90
2019-02-18T19:38:08.527Z,5.80
2019-02-18T19:40:38.451Z,5.70
2019-02-18T19:43:09.271Z,5.60
2019-02-18T19:45:39.353Z,5.50
2019-02-18T19:48:09.527Z,5.40
2019-02-18T19:50:39.845Z,5.20
2019-02-18T19:53:10.047Z,5.20
2019-02-18T19:55:40.383Z,5.10
2019-02-18T19:58:10.637Z,5.10
2019-02-18T20:00:41.032Z,5.10
2019-02-18T20:03:11.340Z,5.10
2019-02-18T20:05:41.255Z,5.10
2019-02-18T20:08:11.587Z,5.00
2019-02-18T20:10:41.658Z,5.00
2019-02-18T20:13:11.756Z,4.90
2019-02-18T20:15:41.926Z,4.90
2019-02-18T20:18:13.794Z,4.80
2019-02-18T20:20:44.124Z,4.80
2019-02-18T20:23:14.978Z,4.70
2019-02-18T20:25:45.186Z,4.70
2019-02-18T20:28:15.388Z,4.70
2019-02-18T20:30:45.563Z,4.70
2019-02-18T20:33:16.248Z,4.60
2019-02-18T20:35:48.607Z,4.50
2019-02-18T20:38:18.815Z,4.30
2019-02-18T20:40:49.065Z,4.10
2019-02-18T20:43:19.541Z,3.90
2019-02-18T20:45:49.786Z,3.80
2019-02-18T20:48:20.508Z,3.70
2019-02-18T20:50:50.961Z,3.50
2019-02-18T20:53:21.379Z,3.40
2019-02-18T20:55:52.225Z,3.40
2019-02-18T20:58:22.646Z,3.40
2019-02-18T21:00:53.028Z,3.40
2019-02-18T21:03:23.605Z,3.30
2019-02-18T21:05:54.137Z,3.20
2019-02-18T21:08:24.161Z,3.10
2019-02-18T21:10:54.331Z,3.00
2019-02-18T21:13:24.720Z,2.80
2019-02-18T21:15:55.488Z,2.70
2019-02-18T21:18:25.701Z,2.50
2019-02-18T21:20:55.914Z,2.40
2019-02-18T21:23:25.970Z,2.40
2019-02-18T21:25:56.157Z,2.30
2019-02-18T21:28:26.613Z,2.20
2019-02-18T21:30:56.942Z,2.10
2019-02-18T21:33:27.288Z,2.10
2019-02-18T21:35:57.484Z,2.10
2019-02-18T21:38:27.575Z,2.10
2019-02-18T21:40:57.620Z,2.00
2019-02-18T21:43:28.523Z,2.00
2019-02-18T21:45:59.119Z,2.00
2019-02-18T21:48:29.633Z,2.10
2019-02-18T21:50:59.854Z,2.20
2019-02-18T21:53:29.956Z,2.40
2019-02-18T21:56:00.102Z,2.50
2019-02-18T21:58:30.128Z,2.50
2019-02-18T22:01:00.446Z,2.50
2019-02-18T22:03:30.773Z,2.40
2019-02-18T22:06:00.786Z,2.30
2019-02-18T22:08:30.981Z,2.30
2019-02-18T22:11:01.443Z,2.30
2019-02-18T22:13:31.579Z,2.30
2019-02-18T22:16:01.564Z,2.30
2019-02-18T22:18:31.727Z,2.30
2019-02-18T22:21:01.975Z,2.20
2019-02-18T22:23:31.952Z,2.10
2019-02-18T22:26:02.425Z,2.00
2019-02-18T22:28:33.004Z,1.90
2019-02-18T22:31:03.322Z,1.90
2019-02-18T22:33:33.365Z,1.80
2019-02-18T22:36:03.583Z,1.70
2019-02-18T22:38:33.733Z,1.60
2019-02-18T22:41:04.355Z,1.50
2019-02-18T22:43:34.440Z,1.40
2019-02-18T22:46:05.238Z,1.40
2019-02-18T22:48:35.577Z,1.20
2019-02-18T22:51:05.728Z,1.20
2019-02-18T22:53:36.347Z,1.10
2019-02-18T22:56:06.547Z,1.10
2019-02-18T22:58:36.993Z,1.00
2019-02-18T23:01:08.775Z,1.00
2019-02-18T23:03:38.955Z,0.90
2019-02-18T23:06:09.207Z,0.90
2019-02-18T23:08:39.379Z,0.90
2019-02-18T23:11:10.005Z,0.90
2019-02-18T23:13:41.951Z,0.90
2019-02-18T23:16:12.167Z,0.80
2019-02-18T23:18:42.459Z,0.80
2019-02-18T23:21:12.565Z,0.80
2019-02-18T23:23:42.848Z,0.70
2019-02-18T23:26:13.234Z,0.70
2019-02-18T23:28:43.841Z,0.60
2019-02-18T23:31:14.009Z,0.60
2019-02-18T23:33:44.065Z,0.60
2019-02-18T23:36:14.236Z,0.60
2019-02-18T23:38:44.592Z,0.60
2019-02-18T23:41:14.991Z,0.60
2019-02-18T23:43:45.130Z,0.60
2019-02-18T23:46:15.131Z,0.50
2019-02-18T23:48:45.593Z,0.50
2019-02-18T23:51:16.087Z,0.50
2019-02-18T23:53:46.200Z,0.40
2019-02-18T23:56:16.238Z,0.40
2019-02-18T23:58:46.318Z,0.40
